createdAt,value
2018-08-06T00:01:02.596Z,102105.00
2018-08-06T00:04:09.445Z,102111.00
2018-08-06T00:07:15.729Z,102115.00
2018-08-06T00:10:24.823Z,102111.00
2018-08-06T00:13:31.197Z,102115.00
2018-08-06T00:16:37.970Z,102113.00
2018-08-06T00:19:44.552Z,102107.00
2018-08-06T00:22:51.410Z,102111.00
2018-08-06T00:25:58.003Z,102107.00
2018-08-06T00:29:04.864Z,102103.00
2018-08-06T00:32:11.480Z,102099.00
2018-08-06T00:35:18.551Z,102103.00
2018-08-06T00:38:25.764Z,102099.00
2018-08-06T00:41:32.663Z,102099.00
2018-08-06T00:44:39.176Z,102097.00
2018-08-06T00:47:46.229Z,102097.00
2018-08-06T00:50:53.902Z,102097.00
2018-08-06T00:54:00.935Z,102099.00
2018-08-06T00:57:07.777Z,102099.00
2018-08-06T01:00:19.151Z,102099.00
2018-08-06T01:03:26.062Z,102099.00
2018-08-06T01:06:32.907Z,102097.00
2018-08-06T01:09:39.774Z,102093.00
2018-08-06T01:12:47.948Z,102091.00
2018-08-06T01:15:53.679Z,102093.00
2018-08-06T01:19:00.524Z,102097.00
2018-08-06T01:22:07.277Z,102093.00
2018-08-06T01:25:14.221Z,102091.00
2018-08-06T01:28:21.397Z,102099.00
2018-08-06T01:31:28.371Z,102101.00
2018-08-06T01:34:35.544Z,102095.00
2018-08-06T01:37:42.148Z,102097.00
2018-08-06T01:40:48.699Z,102095.00
2018-08-06T01:43:55.532Z,102089.00
2018-08-06T01:47:02.384Z,102089.00
2018-08-06T01:50:10.570Z,102087.00
2018-08-06T01:53:17.815Z,102087.00
2018-08-06T01:56:24.321Z,102085.00
2018-08-06T01:59:30.906Z,102091.00
2018-08-06T02:02:37.737Z,102087.00
2018-08-06T02:05:44.240Z,102083.00
2018-08-06T02:08:51.087Z,102083.00
2018-08-06T02:11:58.159Z,102079.00
2018-08-06T02:15:06.402Z,102074.00
2018-08-06T02:18:13.347Z,102076.00
2018-08-06T02:21:20.558Z,102074.00
2018-08-06T02:24:27.609Z,102076.00
2018-08-06T02:27:34.467Z,102063.00
2018-08-06T02:30:41.313Z,102059.00
2018-08-06T02:33:48.209Z,102055.00
2018-08-06T02:36:55.351Z,102057.00
2018-08-06T02:40:02.207Z,102057.00
2018-08-06T02:43:08.756Z,102055.00
2018-08-06T02:46:15.600Z,102053.00
2018-08-06T02:49:22.783Z,102047.00
2018-08-06T02:52:29.693Z,102043.00
2018-08-06T02:55:36.531Z,102041.00
2018-08-06T02:58:43.852Z,102039.00
2018-08-06T03:01:50.748Z,102037.00
2018-08-06T03:04:57.927Z,102043.00
2018-08-06T03:08:04.776Z,102043.00
2018-08-06T03:11:11.469Z,102037.00
2018-08-06T03:14:18.226Z,102039.00
2018-08-06T03:17:24.757Z,102041.00
2018-08-06T03:20:31.274Z,102035.00
2018-08-06T03:23:37.983Z,102035.00
2018-08-06T03:26:44.732Z,102039.00
2018-08-06T03:29:51.926Z,102037.00
2018-08-06T03:32:58.645Z,102037.00
2018-08-06T03:36:05.407Z,102035.00
2018-08-06T03:39:12.282Z,102037.00
2018-08-06T03:42:19.697Z,102037.00
2018-08-06T03:45:26.208Z,102039.00
2018-08-06T03:48:33.065Z,102033.00
2018-08-06T03:51:40.351Z,102041.00
2018-08-06T03:54:47.201Z,102037.00
2018-08-06T03:57:53.776Z,102035.00
2018-08-06T04:01:00.549Z,102039.00
2018-08-06T04:04:07.787Z,102031.00
2018-08-06T04:07:14.588Z,102029.00
2018-08-06T04:10:21.442Z,102037.00
2018-08-06T04:13:28.880Z,102031.00
2018-08-06T04:16:46.057Z,102029.00
2018-08-06T04:19:52.891Z,102027.00
2018-08-06T04:23:00.504Z,102029.00
2018-08-06T04:26:07.595Z,102029.00
2018-08-06T04:29:14.747Z,102031.00
2018-08-06T04:32:21.372Z,102033.00
2018-08-06T04:35:28.128Z,102031.00
2018-08-06T04:38:34.449Z,102031.00
2018-08-06T04:41:41.511Z,102035.00
2018-08-06T04:44:48.267Z,102039.00
2018-08-06T04:47:54.521Z,102035.00
2018-08-06T04:51:01.288Z,102035.00
2018-08-06T04:54:08.177Z,102031.00
2018-08-06T04:57:15.019Z,102033.00
2018-08-06T05:00:21.785Z,102037.00
2018-08-06T05:03:28.682Z,102039.00
2018-08-06T05:06:35.530Z,102033.00
2018-08-06T05:09:44.052Z,102039.00
2018-08-06T05:12:50.343Z,102043.00
2018-08-06T05:15:56.762Z,102045.00
2018-08-06T05:19:03.876Z,102041.00
2018-08-06T05:22:10.799Z,102043.00
2018-08-06T05:25:17.910Z,102043.00
2018-08-06T05:28:24.741Z,102039.00
2018-08-06T05:31:31.344Z,102039.00
2018-08-06T05:34:38.386Z,102041.00
2018-08-06T05:37:45.500Z,102043.00
2018-08-06T05:40:52.326Z,102043.00
2018-08-06T05:43:58.871Z,102043.00
2018-08-06T05:47:06.080Z,102041.00
2018-08-06T05:50:14.422Z,102039.00
2018-08-06T05:53:21.761Z,102041.00
2018-08-06T05:56:28.594Z,102043.00
2018-08-06T05:59:35.181Z,102047.00
2018-08-06T06:02:42.011Z,102047.00
2018-08-06T06:05:48.867Z,102047.00
2018-08-06T06:08:55.879Z,102045.00
2018-08-06T06:12:02.762Z,102047.00
2018-08-06T06:15:14.418Z,102035.00
2018-08-06T06:18:21.253Z,102037.00
2018-08-06T06:21:28.270Z,102039.00
2018-08-06T06:24:35.135Z,102033.00
2018-08-06T06:27:43.009Z,102029.00
2018-08-06T06:30:50.135Z,102024.00
2018-08-06T06:33:56.827Z,102022.00
2018-08-06T06:37:03.606Z,102020.00
2018-08-06T06:40:10.479Z,102022.00
2018-08-06T06:43:17.182Z,102020.00
2018-08-06T06:46:23.944Z,102016.00
2018-08-06T06:49:30.787Z,102016.00
2018-08-06T06:52:37.500Z,102022.00
2018-08-06T06:55:44.366Z,102022.00
2018-08-06T06:58:51.560Z,102022.00
2018-08-06T07:01:58.508Z,102018.00
2018-08-06T07:05:06.465Z,102014.00
2018-08-06T07:08:12.749Z,102012.00
2018-08-06T07:11:19.667Z,102010.00
2018-08-06T07:14:26.527Z,102014.00
2018-08-06T07:17:33.377Z,102012.00
2018-08-06T07:20:39.647Z,102010.00
2018-08-06T07:23:46.490Z,102004.00
2018-08-06T07:26:53.338Z,102002.00
2018-08-06T07:30:00.204Z,102008.00
2018-08-06T07:33:07.107Z,102014.00
2018-08-06T07:36:14.289Z,102000.00
2018-08-06T07:39:21.125Z,102002.00
2018-08-06T07:42:27.727Z,101998.00
2018-08-06T07:45:34.528Z,101994.00
2018-08-06T07:48:41.390Z,101984.00
2018-08-06T07:51:48.222Z,101988.00
2018-08-06T07:54:55.065Z,101982.00
2018-08-06T07:58:01.593Z,101982.00
2018-08-06T08:01:08.433Z,101980.00
2018-08-06T08:04:15.548Z,101980.00
2018-08-06T08:07:22.007Z,101982.00
2018-08-06T08:10:28.522Z,101980.00
2018-08-06T08:13:35.153Z,101977.00
2018-08-06T08:16:41.921Z,101973.00
2018-08-06T08:19:48.842Z,101965.00
2018-08-06T08:22:55.384Z,101969.00
2018-08-06T08:26:02.207Z,101965.00
2018-08-06T08:29:08.808Z,101969.00
2018-08-06T08:32:15.579Z,101967.00
2018-08-06T08:35:28.286Z,101959.00
2018-08-06T08:38:35.129Z,101955.00
2018-08-06T08:41:42.018Z,101955.00
2018-08-06T08:44:48.830Z,101955.00
2018-08-06T08:47:55.423Z,101949.00
2018-08-06T08:51:02.176Z,101945.00
2018-08-06T08:54:08.761Z,101945.00
2018-08-06T08:57:15.892Z,101935.00
2018-08-06T09:00:23.568Z,101939.00
2018-08-06T09:03:30.419Z,101933.00
2018-08-06T09:06:37.346Z,101928.00
2018-08-06T09:09:43.775Z,101928.00
2018-08-06T09:12:50.405Z,101924.00
2018-08-06T09:15:56.982Z,101924.00
2018-08-06T09:19:03.222Z,101924.00
2018-08-06T09:22:09.991Z,101922.00
2018-08-06T09:25:16.972Z,101916.00
2018-08-06T09:28:23.579Z,101910.00
2018-08-06T09:31:30.352Z,101906.00
2018-08-06T09:34:37.187Z,101906.00
2018-08-06T09:37:44.203Z,101900.00
2018-08-06T09:40:50.484Z,101904.00
2018-08-06T09:43:57.273Z,101898.00
2018-08-06T09:47:03.925Z,101898.00
2018-08-06T09:50:11.754Z,101894.00
2018-08-06T09:53:18.808Z,101892.00
2018-08-06T09:56:25.693Z,101896.00
2018-08-06T09:59:32.294Z,101884.00
2018-08-06T10:02:39.096Z,101888.00
2018-08-06T10:05:46.277Z,101878.00
2018-08-06T10:08:52.819Z,101877.00
2018-08-06T10:11:59.647Z,101875.00
2018-08-06T10:15:07.563Z,101873.00
2018-08-06T10:18:14.419Z,101867.00
2018-08-06T10:21:21.266Z,101865.00
2018-08-06T10:24:28.140Z,101869.00
2018-08-06T10:27:34.948Z,101863.00
2018-08-06T10:30:41.977Z,101853.00
2018-08-06T10:33:48.767Z,101851.00
2018-08-06T10:36:55.365Z,101843.00
2018-08-06T10:40:02.145Z,101835.00
2018-08-06T10:43:08.851Z,101835.00
2018-08-06T10:46:15.505Z,101828.00
2018-08-06T10:49:22.800Z,101824.00
2018-08-06T10:52:29.643Z,101824.00
2018-08-06T10:55:36.524Z,101824.00
2018-08-06T10:58:43.426Z,101807.00
2018-08-06T11:01:50.034Z,101807.00
2018-08-06T11:04:57.193Z,101795.00
2018-08-06T11:08:03.824Z,101789.00
2018-08-06T11:11:10.336Z,101785.00
2018-08-06T11:14:17.015Z,101789.00
2018-08-06T11:17:23.517Z,101785.00
2018-08-06T11:20:30.434Z,101780.00
2018-08-06T11:23:37.716Z,101770.00
2018-08-06T11:26:44.549Z,101766.00
2018-08-06T11:29:51.147Z,101762.00
2018-08-06T11:32:57.837Z,101758.00
2018-08-06T11:36:04.929Z,101756.00
2018-08-06T11:39:12.804Z,101748.00
2018-08-06T11:42:19.644Z,101742.00
2018-08-06T11:45:26.522Z,101740.00
2018-08-06T11:48:33.728Z,101736.00
2018-08-06T11:51:40.335Z,101731.00
2018-08-06T11:54:48.343Z,101725.00
2018-08-06T11:57:55.220Z,101727.00
2018-08-06T12:01:02.066Z,101723.00
2018-08-06T12:04:09.323Z,101721.00
2018-08-06T12:07:16.211Z,101713.00
2018-08-06T12:10:23.053Z,101703.00
2018-08-06T12:13:30.008Z,101695.00
2018-08-06T12:16:36.883Z,101689.00
2018-08-06T12:19:43.727Z,101689.00
2018-08-06T12:22:52.036Z,101682.00
2018-08-06T12:25:58.900Z,101676.00
2018-08-06T12:29:05.492Z,101668.00
2018-08-06T12:32:12.587Z,101666.00
2018-08-06T12:35:19.550Z,101662.00
2018-08-06T12:38:55.965Z,101656.00
2018-08-06T12:42:02.798Z,101652.00
2018-08-06T12:45:11.451Z,101652.00
2018-08-06T12:48:17.789Z,101656.00
2018-08-06T12:51:24.808Z,101644.00
2018-08-06T12:54:31.581Z,101638.00
2018-08-06T12:57:39.350Z,101635.00
2018-08-06T13:00:46.212Z,101631.00
2018-08-06T13:03:52.935Z,101621.00
2018-08-06T13:06:59.362Z,101623.00
2018-08-06T13:10:06.893Z,101615.00
2018-08-06T13:13:13.696Z,101617.00
2018-08-06T13:16:20.930Z,101609.00
2018-08-06T13:19:27.549Z,101605.00
2018-08-06T13:22:34.322Z,101605.00
2018-08-06T13:25:42.687Z,101593.00
2018-08-06T13:28:48.661Z,101593.00
2018-08-06T13:31:55.273Z,101593.00
2018-08-06T13:35:02.262Z,101589.00
2018-08-06T13:38:09.011Z,101587.00
2018-08-06T13:41:15.620Z,101584.00
2018-08-06T13:44:22.155Z,101576.00
2018-08-06T13:47:28.967Z,101572.00
2018-08-06T13:50:35.942Z,101568.00
2018-08-06T13:53:42.811Z,101566.00
2018-08-06T13:56:50.114Z,101549.00
2018-08-06T13:59:57.372Z,101558.00
2018-08-06T14:03:04.211Z,101562.00
2018-08-06T14:06:11.459Z,101540.00
2018-08-06T14:09:18.065Z,101543.00
2018-08-06T14:12:25.304Z,101540.00
2018-08-06T14:15:32.576Z,101540.00
2018-08-06T14:18:39.427Z,101532.00
2018-08-06T14:21:46.645Z,101532.00
2018-08-06T14:24:54.079Z,101528.00
2018-08-06T14:28:01.401Z,101516.00
2018-08-06T14:31:08.474Z,101514.00
2018-08-06T14:34:15.800Z,101512.00
2018-08-06T14:37:22.582Z,101510.00
2018-08-06T14:40:29.539Z,101510.00
2018-08-06T14:43:36.438Z,101502.00
2018-08-06T14:46:43.009Z,101506.00
2018-08-06T14:49:49.844Z,101502.00
2018-08-06T14:52:56.455Z,101500.00
2018-08-06T14:56:03.005Z,101498.00
2018-08-06T14:59:09.624Z,101492.00
2018-08-06T15:02:16.775Z,101485.00
2018-08-06T15:05:23.371Z,101481.00
2018-08-06T15:08:30.149Z,101479.00
2018-08-06T15:11:37.069Z,101483.00
2018-08-06T15:14:43.874Z,101479.00
2018-08-06T15:17:50.777Z,101473.00
2018-08-06T15:20:57.383Z,101469.00
2018-08-06T15:24:04.220Z,101463.00
2018-08-06T15:27:10.815Z,101459.00
2018-08-06T15:30:18.018Z,101463.00
2018-08-06T15:33:24.985Z,101461.00
2018-08-06T15:36:31.712Z,101457.00
2018-08-06T15:39:38.448Z,101449.00
2018-08-06T15:42:45.365Z,101451.00
2018-08-06T15:45:52.229Z,101447.00
2018-08-06T15:48:59.104Z,101453.00
2018-08-06T15:52:06.026Z,101449.00
2018-08-06T15:55:13.174Z,101445.00
2018-08-06T15:58:20.433Z,101445.00
2018-08-06T16:01:27.055Z,101438.00
2018-08-06T16:04:34.258Z,101436.00
2018-08-06T16:07:41.507Z,101436.00
2018-08-06T16:10:48.130Z,101430.00
2018-08-06T16:13:55.304Z,101428.00
2018-08-06T16:17:02.578Z,101426.00
2018-08-06T16:20:12.144Z,101424.00
2018-08-06T16:23:19.281Z,101420.00
2018-08-06T16:26:25.826Z,101418.00
2018-08-06T16:29:33.273Z,101416.00
2018-08-06T16:32:39.888Z,101410.00
2018-08-06T16:35:46.722Z,101408.00
2018-08-06T16:38:53.311Z,101408.00
2018-08-06T16:41:59.888Z,101408.00
2018-08-06T16:45:07.736Z,101410.00
2018-08-06T16:48:14.561Z,101400.00
2018-08-06T16:51:21.431Z,101402.00
2018-08-06T16:54:28.357Z,101400.00
2018-08-06T16:57:35.743Z,101398.00
2018-08-06T17:00:42.583Z,101392.00
2018-08-06T17:03:49.208Z,101394.00
2018-08-06T17:06:56.267Z,101394.00
2018-08-06T17:10:03.139Z,101396.00
2018-08-06T17:13:09.764Z,101396.00
2018-08-06T17:16:16.591Z,101394.00
2018-08-06T17:19:23.181Z,101390.00
2018-08-06T17:22:30.179Z,101394.00
2018-08-06T17:25:37.391Z,101392.00
2018-08-06T17:28:44.529Z,101388.00
2018-08-06T17:31:51.127Z,101386.00
2018-08-06T17:34:58.258Z,101390.00
2018-08-06T17:38:05.597Z,101394.00
2018-08-06T17:41:12.584Z,101390.00
2018-08-06T17:44:19.432Z,101392.00
2018-08-06T17:47:26.078Z,101390.00
2018-08-06T17:50:32.287Z,101390.00
2018-08-06T17:53:39.048Z,101386.00
2018-08-06T17:56:45.672Z,101386.00
2018-08-06T17:59:52.419Z,101390.00
2018-08-06T18:02:59.217Z,101388.00
2018-08-06T18:06:06.711Z,101386.00
2018-08-06T18:09:13.920Z,101385.00
2018-08-06T18:12:21.153Z,101385.00
2018-08-06T18:15:28.005Z,101385.00
2018-08-06T18:18:34.843Z,101386.00
2018-08-06T18:21:41.472Z,101388.00
2018-08-06T18:24:48.624Z,101388.00
2018-08-06T18:27:55.636Z,101394.00
2018-08-06T18:31:02.774Z,101390.00
2018-08-06T18:34:09.377Z,101390.00
2018-08-06T18:37:16.301Z,101392.00
2018-08-06T18:40:23.078Z,101385.00
2018-08-06T18:43:30.257Z,101390.00
2018-08-06T18:46:37.388Z,101390.00
2018-08-06T18:49:43.989Z,101394.00
2018-08-06T18:52:51.483Z,101392.00
2018-08-06T18:55:58.335Z,101396.00
2018-08-06T18:59:04.936Z,101390.00
2018-08-06T19:02:11.702Z,101394.00
2018-08-06T19:05:18.655Z,101392.00
2018-08-06T19:08:25.837Z,101394.00
2018-08-06T19:11:32.657Z,101390.00
2018-08-06T19:14:39.294Z,101394.00
2018-08-06T19:17:51.739Z,101394.00
2018-08-06T19:20:59.037Z,101396.00
2018-08-06T19:24:11.067Z,101398.00
2018-08-06T19:27:17.799Z,101400.00
2018-08-06T19:30:29.894Z,101400.00
2018-08-06T19:33:36.723Z,101394.00
2018-08-06T19:36:48.766Z,101398.00
2018-08-06T19:39:55.594Z,101398.00
2018-08-06T19:43:07.453Z,101398.00
2018-08-06T19:46:13.970Z,101400.00
2018-08-06T19:49:25.926Z,101398.00
2018-08-06T19:52:32.829Z,101398.00
2018-08-06T19:55:44.854Z,101402.00
2018-08-06T19:58:51.609Z,101406.00
2018-08-06T20:01:58.496Z,101402.00
2018-08-06T20:05:05.551Z,101402.00
2018-08-06T20:08:12.297Z,101402.00
2018-08-06T20:11:19.274Z,101402.00
2018-08-06T20:14:26.139Z,101402.00
2018-08-06T20:17:32.925Z,101400.00
2018-08-06T20:20:39.744Z,101398.00
2018-08-06T20:23:46.792Z,101402.00
2018-08-06T20:26:53.629Z,101398.00
2018-08-06T20:30:00.514Z,101394.00
2018-08-06T20:33:07.746Z,101396.00
2018-08-06T20:36:14.307Z,101400.00
2018-08-06T20:39:20.836Z,101396.00
2018-08-06T20:42:27.758Z,101402.00
2018-08-06T20:45:34.582Z,101398.00
2018-08-06T20:48:41.445Z,101396.00
2018-08-06T20:51:48.140Z,101392.00
2018-08-06T20:54:55.072Z,101398.00
2018-08-06T20:58:02.829Z,101400.00
2018-08-06T21:01:09.682Z,101400.00
2018-08-06T21:04:16.507Z,101398.00
2018-08-06T21:07:23.355Z,101402.00
2018-08-06T21:10:30.187Z,101398.00
2018-08-06T21:13:37.121Z,101402.00
2018-08-06T21:16:44.915Z,101398.00
2018-08-06T21:19:52.053Z,101404.00
2018-08-06T21:22:59.511Z,101408.00
2018-08-06T21:26:06.917Z,101404.00
2018-08-06T21:29:14.061Z,101408.00
2018-08-06T21:32:21.102Z,101410.00
2018-08-06T21:35:28.666Z,101406.00
2018-08-06T21:38:35.499Z,101410.00
2018-08-06T21:41:42.359Z,101410.00
2018-08-06T21:44:49.196Z,101406.00
2018-08-06T21:47:55.773Z,101410.00
2018-08-06T21:51:02.594Z,101414.00
2018-08-06T21:54:09.780Z,101410.00
2018-08-06T21:57:16.274Z,101406.00
2018-08-06T22:00:41.954Z,101406.00
2018-08-06T22:03:48.864Z,101408.00
2018-08-06T22:06:55.769Z,101404.00
2018-08-06T22:10:02.604Z,101404.00
2018-08-06T22:13:10.136Z,101404.00
2018-08-06T22:16:16.968Z,101406.00
2018-08-06T22:19:26.871Z,101408.00
2018-08-06T22:22:33.742Z,101408.00
2018-08-06T22:25:40.623Z,101406.00
2018-08-06T22:28:47.137Z,101406.00
2018-08-06T22:31:53.769Z,101408.00
2018-08-06T22:35:00.592Z,101408.00
2018-08-06T22:38:07.184Z,101410.00
2018-08-06T22:41:14.134Z,101410.00
2018-08-06T22:44:20.978Z,101416.00
2018-08-06T22:47:27.816Z,101410.00
2018-08-06T22:50:34.331Z,101406.00
2018-08-06T22:53:41.301Z,101404.00
2018-08-06T22:56:48.092Z,101404.00
2018-08-06T22:59:54.946Z,101404.00
2018-08-06T23:03:01.642Z,101404.00
2018-08-06T23:06:09.431Z,101410.00
2018-08-06T23:09:16.138Z,101408.00
2018-08-06T23:12:22.857Z,101412.00
2018-08-06T23:15:29.706Z,101408.00
2018-08-06T23:18:36.552Z,101404.00
2018-08-06T23:21:43.939Z,101406.00
2018-08-06T23:24:51.151Z,101406.00
2018-08-06T23:27:57.411Z,101402.00
2018-08-06T23:31:04.005Z,101400.00
2018-08-06T23:34:10.869Z,101398.00
2018-08-06T23:37:18.042Z,101396.00
2018-08-06T23:40:24.625Z,101388.00
2018-08-06T23:43:31.463Z,101390.00
2018-08-06T23:46:38.290Z,101383.00
2018-08-06T23:49:45.115Z,101381.00
2018-08-06T23:52:51.988Z,101381.00
2018-08-06T23:55:58.488Z,101383.00
2018-08-06T23:59:06.244Z,101385.00
